sensor_id;sensor_type;location;lat;lon;timestamp;P1;durP1;ratioP1;P2;durP2;ratioP2
13343;SDS011;6741;48.964;9.406;2024-03-07T00:00:08;33.93;;;22.13;;
13343;SDS011;6741;48.964;9.406;2024-03-07T00:02:42;37.57;;;22.57;;
13343;SDS011;6741;48.964;9.406;2024-03-07T00:05:10;41.10;;;25.30;;
13343;SDS011;6741;48.964;9.406;2024-03-07T00:07:38;39.40;;;24.90;;
13343;SDS011;6741;48.964;9.406;2024-03-07T00:10:05;40.67;;;24.50;;
13343;SDS011;6741;48.964;9.406;2024-03-07T00:12:33;42.60;;;26.40;;
13343;SDS011;6741;48.964;9.406;2024-03-07T00:15:01;41.70;;;26.93;;
13343;SDS011;6741;48.964;9.406;2024-03-07T00:17:28;45.20;;;27.37;;
13343;SDS011;6741;48.964;9.406;2024-03-07T00:19:55;44.17;;;27.47;;
13343;SDS011;6741;48.964;9.406;2024-03-07T00:22:23;45.83;;;29.77;;
13343;SDS011;6741;48.964;9.406;2024-03-07T00:24:53;44.83;;;28.77;;
13343;SDS011;6741;48.964;9.406;2024-03-07T00:27:20;45.37;;;28.97;;
13343;SDS011;6741;48.964;9.406;2024-03-07T00:29:47;50.67;;;30.83;;
13343;SDS011;6741;48.964;9.406;2024-03-07T00:32:18;49.77;;;31.63;;
13343;SDS011;6741;48.964;9.406;2024-03-07T00:34:45;54.07;;;31.20;;
13343;SDS011;6741;48.964;9.406;2024-03-07T00:37:12;51.67;;;31.33;;
13343;SDS011;6741;48.964;9.406;2024-03-07T00:39:40;57.17;;;33.77;;
13343;SDS011;6741;48.964;9.406;2024-03-07T00:42:07;56.03;;;33.27;;
13343;SDS011;6741;48.964;9.406;2024-03-07T00:44:34;55.73;;;32.83;;
13343;SDS011;6741;48.964;9.406;2024-03-07T00:47:01;60.63;;;33.00;;
13343;SDS011;6741;48.964;9.406;2024-03-07T00:49:29;52.20;;;31.87;;
13343;SDS011;6741;48.964;9.406;2024-03-07T00:51:58;57.53;;;31.90;;
13343;SDS011;6741;48.964;9.406;2024-03-07T00:54:25;51.97;;;31.73;;
13343;SDS011;6741;48.964;9.406;2024-03-07T00:56:53;48.67;;;31.00;;
13343;SDS011;6741;48.964;9.406;2024-03-07T00:59:21;53.20;;;31.40;;
13343;SDS011;6741;48.964;9.406;2024-03-07T01:01:48;51.17;;;30.77;;
13343;SDS011;6741;48.964;9.406;2024-03-07T01:04:15;50.47;;;31.53;;
13343;SDS011;6741;48.964;9.406;2024-03-07T01:06:42;52.23;;;32.63;;
13343;SDS011;6741;48.964;9.406;2024-03-07T01:09:09;50.40;;;31.10;;
13343;SDS011;6741;48.964;9.406;2024-03-07T01:11:40;54.73;;;33.27;;
13343;SDS011;6741;48.964;9.406;2024-03-07T01:14:08;48.70;;;31.97;;
13343;SDS011;6741;48.964;9.406;2024-03-07T01:16:35;54.77;;;32.77;;
13343;SDS011;6741;48.964;9.406;2024-03-07T01:19:02;49.83;;;30.93;;
13343;SDS011;6741;48.964;9.406;2024-03-07T01:21:31;52.57;;;31.70;;
13343;SDS011;6741;48.964;9.406;2024-03-07T01:23:58;50.60;;;29.93;;
13343;SDS011;6741;48.964;9.406;2024-03-07T01:26:25;47.50;;;32.07;;
13343;SDS011;6741;48.964;9.406;2024-03-07T01:28:52;46.40;;;30.13;;
13343;SDS011;6741;48.964;9.406;2024-03-07T01:31:21;53.83;;;31.63;;
13343;SDS011;6741;48.964;9.406;2024-03-07T01:33:51;55.77;;;32.23;;
13343;SDS011;6741;48.964;9.406;2024-03-07T01:36:18;52.80;;;32.43;;
13343;SDS011;6741;48.964;9.406;2024-03-07T01:38:45;52.27;;;32.93;;
13343;SDS011;6741;48.964;9.406;2024-03-07T01:41:13;53.43;;;33.83;;
13343;SDS011;6741;48.964;9.406;2024-03-07T01:43:40;59.43;;;35.27;;
13343;SDS011;6741;48.964;9.406;2024-03-07T01:46:07;52.07;;;32.47;;
13343;SDS011;6741;48.964;9.406;2024-03-07T01:48:37;50.40;;;33.03;;
13343;SDS011;6741;48.964;9.406;2024-03-07T01:51:05;55.57;;;34.13;;
13343;SDS011;6741;48.964;9.406;2024-03-07T01:53:32;54.43;;;33.57;;
13343;SDS011;6741;48.964;9.406;2024-03-07T01:56:00;52.50;;;33.47;;
13343;SDS011;6741;48.964;9.406;2024-03-07T01:58:29;50.37;;;31.40;;
13343;SDS011;6741;48.964;9.406;2024-03-07T02:00:56;55.67;;;34.33;;
13343;SDS011;6741;48.964;9.406;2024-03-07T02:03:24;51.77;;;32.43;;
13343;SDS011;6741;48.964;9.406;2024-03-07T02:05:52;55.57;;;35.00;;
13343;SDS011;6741;48.964;9.406;2024-03-07T02:08:19;54.37;;;33.63;;
13343;SDS011;6741;48.964;9.406;2024-03-07T02:10:46;49.80;;;30.77;;
13343;SDS011;6741;48.964;9.406;2024-03-07T02:13:13;52.30;;;31.83;;
13343;SDS011;6741;48.964;9.406;2024-03-07T02:15:40;52.27;;;32.70;;
13343;SDS011;6741;48.964;9.406;2024-03-07T02:18:08;57.17;;;32.73;;
13343;SDS011;6741;48.964;9.406;2024-03-07T02:20:35;46.73;;;30.53;;
13343;SDS011;6741;48.964;9.406;2024-03-07T02:23:04;51.90;;;32.03;;
13343;SDS011;6741;48.964;9.406;2024-03-07T02:25:30;53.07;;;33.53;;
13343;SDS011;6741;48.964;9.406;2024-03-07T02:28:02;57.63;;;32.40;;
13343;SDS011;6741;48.964;9.406;2024-03-07T02:30:30;54.30;;;31.87;;
13343;SDS011;6741;48.964;9.406;2024-03-07T02:32:58;49.90;;;32.93;;
13343;SDS011;6741;48.964;9.406;2024-03-07T02:35:31;50.03;;;30.30;;
13343;SDS011;6741;48.964;9.406;2024-03-07T02:38:00;49.73;;;31.87;;
13343;SDS011;6741;48.964;9.406;2024-03-07T02:40:28;51.03;;;32.43;;
13343;SDS011;6741;48.964;9.406;2024-03-07T02:42:55;49.57;;;31.03;;
13343;SDS011;6741;48.964;9.406;2024-03-07T02:45:23;51.63;;;33.20;;
13343;SDS011;6741;48.964;9.406;2024-03-07T02:47:50;47.60;;;30.53;;
13343;SDS011;6741;48.964;9.406;2024-03-07T02:50:18;51.97;;;30.77;;
13343;SDS011;6741;48.964;9.406;2024-03-07T02:52:46;45.87;;;28.77;;
13343;SDS011;6741;48.964;9.406;2024-03-07T02:55:14;49.23;;;29.90;;
13343;SDS011;6741;48.964;9.406;2024-03-07T02:57:42;49.40;;;31.33;;
13343;SDS011;6741;48.964;9.406;2024-03-07T03:00:09;47.03;;;29.50;;
13343;SDS011;6741;48.964;9.406;2024-03-07T03:02:44;44.17;;;28.00;;
13343;SDS011;6741;48.964;9.406;2024-03-07T03:05:13;45.43;;;28.67;;
13343;SDS011;6741;48.964;9.406;2024-03-07T03:07:40;50.90;;;31.20;;
13343;SDS011;6741;48.964;9.406;2024-03-07T03:10:07;46.80;;;27.03;;
13343;SDS011;6741;48.964;9.406;2024-03-07T03:12:36;47.90;;;29.00;;
13343;SDS011;6741;48.964;9.406;2024-03-07T03:15:06;45.53;;;28.47;;
13343;SDS011;6741;48.964;9.406;2024-03-07T03:17:36;47.10;;;29.90;;
13343;SDS011;6741;48.964;9.406;2024-03-07T03:20:03;49.13;;;28.33;;
13343;SDS011;6741;48.964;9.406;2024-03-07T03:22:40;51.87;;;30.77;;
13343;SDS011;6741;48.964;9.406;2024-03-07T03:25:09;51.00;;;30.60;;
13343;SDS011;6741;48.964;9.406;2024-03-07T03:27:36;50.43;;;30.63;;
13343;SDS011;6741;48.964;9.406;2024-03-07T03:30:06;47.60;;;29.53;;
13343;SDS011;6741;48.964;9.406;2024-03-07T03:32:38;46.70;;;28.93;;
13343;SDS011;6741;48.964;9.406;2024-03-07T03:35:05;47.67;;;27.97;;
13343;SDS011;6741;48.964;9.406;2024-03-07T03:37:34;49.23;;;28.77;;
13343;SDS011;6741;48.964;9.406;2024-03-07T03:40:01;50.40;;;29.30;;
13343;SDS011;6741;48.964;9.406;2024-03-07T03:42:29;49.00;;;28.97;;
13343;SDS011;6741;48.964;9.406;2024-03-07T03:44:56;49.63;;;29.20;;
13343;SDS011;6741;48.964;9.406;2024-03-07T03:47:24;52.23;;;29.77;;
13343;SDS011;6741;48.964;9.406;2024-03-07T03:49:53;47.57;;;29.63;;
13343;SDS011;6741;48.964;9.406;2024-03-07T03:52:20;50.20;;;28.57;;
13343;SDS011;6741;48.964;9.406;2024-03-07T03:54:47;48.57;;;28.67;;
13343;SDS011;6741;48.964;9.406;2024-03-07T03:57:14;45.33;;;28.10;;
13343;SDS011;6741;48.964;9.406;2024-03-07T03:59:43;50.30;;;28.97;;
13343;SDS011;6741;48.964;9.406;2024-03-07T04:02:10;48.33;;;28.47;;
13343;SDS011;6741;48.964;9.406;2024-03-07T04:04:39;47.17;;;29.40;;
13343;SDS011;6741;48.964;9.406;2024-03-07T04:07:06;48.60;;;28.53;;
13343;SDS011;6741;48.964;9.406;2024-03-07T04:09:33;49.13;;;29.23;;
13343;SDS011;6741;48.964;9.406;2024-03-07T04:12:00;46.27;;;29.40;;
13343;SDS011;6741;48.964;9.406;2024-03-07T04:14:27;46.90;;;28.13;;
13343;SDS011;6741;48.964;9.406;2024-03-07T04:16:57;47.37;;;28.03;;
13343;SDS011;6741;48.964;9.406;2024-03-07T04:19:24;50.87;;;29.47;;
13343;SDS011;6741;48.964;9.406;2024-03-07T04:21:52;50.87;;;29.23;;
13343;SDS011;6741;48.964;9.406;2024-03-07T04:24:20;55.23;;;29.90;;
13343;SDS011;6741;48.964;9.406;2024-03-07T04:26:47;48.50;;;29.50;;
13343;SDS011;6741;48.964;9.406;2024-03-07T04:29:13;375.70;;;58.30;;
13343;SDS011;6741;48.964;9.406;2024-03-07T04:31:41;52.77;;;30.47;;
13343;SDS011;6741;48.964;9.406;2024-03-07T04:34:09;53.67;;;31.40;;
13343;SDS011;6741;48.964;9.406;2024-03-07T04:36:36;52.30;;;28.77;;
13343;SDS011;6741;48.964;9.406;2024-03-07T04:39:04;50.60;;;28.77;;
13343;SDS011;6741;48.964;9.406;2024-03-07T04:41:39;49.23;;;28.40;;
13343;SDS011;6741;48.964;9.406;2024-03-07T04:44:06;50.07;;;28.97;;
13343;SDS011;6741;48.964;9.406;2024-03-07T04:46:33;47.10;;;28.43;;
13343;SDS011;6741;48.964;9.406;2024-03-07T04:49:00;51.53;;;28.07;;
13343;SDS011;6741;48.964;9.406;2024-03-07T04:51:28;50.37;;;29.33;;
13343;SDS011;6741;48.964;9.406;2024-03-07T04:53:54;44.60;;;28.23;;
13343;SDS011;6741;48.964;9.406;2024-03-07T04:56:23;46.87;;;28.03;;
13343;SDS011;6741;48.964;9.406;2024-03-07T04:58:50;48.63;;;28.80;;
13343;SDS011;6741;48.964;9.406;2024-03-07T05:01:17;49.57;;;28.50;;
13343;SDS011;6741;48.964;9.406;2024-03-07T05:03:44;49.83;;;28.13;;
13343;SDS011;6741;48.964;9.406;2024-03-07T05:06:11;48.27;;;27.93;;
13343;SDS011;6741;48.964;9.406;2024-03-07T05:08:38;48.03;;;28.37;;
13343;SDS011;6741;48.964;9.406;2024-03-07T05:11:05;47.70;;;28.40;;
13343;SDS011;6741;48.964;9.406;2024-03-07T05:13:33;49.77;;;30.17;;
13343;SDS011;6741;48.964;9.406;2024-03-07T05:16:00;49.43;;;29.57;;
13343;SDS011;6741;48.964;9.406;2024-03-07T05:18:27;51.13;;;28.10;;
13343;SDS011;6741;48.964;9.406;2024-03-07T05:20:54;45.50;;;27.17;;
13343;SDS011;6741;48.964;9.406;2024-03-07T05:23:21;48.17;;;27.43;;
13343;SDS011;6741;48.964;9.406;2024-03-07T05:25:48;50.57;;;28.77;;
13343;SDS011;6741;48.964;9.406;2024-03-07T05:28:14;52.53;;;29.03;;
13343;SDS011;6741;48.964;9.406;2024-03-07T05:30:43;49.13;;;27.73;;
13343;SDS011;6741;48.964;9.406;2024-03-07T05:33:09;49.60;;;28.47;;
13343;SDS011;6741;48.964;9.406;2024-03-07T05:35:36;49.40;;;27.97;;
13343;SDS011;6741;48.964;9.406;2024-03-07T05:38:03;50.70;;;28.67;;
13343;SDS011;6741;48.964;9.406;2024-03-07T05:40:30;43.90;;;26.63;;
13343;SDS011;6741;48.964;9.406;2024-03-07T05:42:58;48.67;;;28.17;;
13343;SDS011;6741;48.964;9.406;2024-03-07T05:45:25;47.87;;;27.13;;
13343;SDS011;6741;48.964;9.406;2024-03-07T05:47:53;44.83;;;28.63;;
13343;SDS011;6741;48.964;9.406;2024-03-07T05:50:20;51.23;;;28.53;;
13343;SDS011;6741;48.964;9.406;2024-03-07T05:52:47;48.13;;;28.13;;
13343;SDS011;6741;48.964;9.406;2024-03-07T05:55:14;48.90;;;27.67;;
13343;SDS011;6741;48.964;9.406;2024-03-07T05:57:41;45.67;;;28.67;;
13343;SDS011;6741;48.964;9.406;2024-03-07T06:00:10;48.83;;;28.43;;
13343;SDS011;6741;48.964;9.406;2024-03-07T06:02:40;43.10;;;26.07;;
13343;SDS011;6741;48.964;9.406;2024-03-07T06:05:09;44.03;;;26.63;;
13343;SDS011;6741;48.964;9.406;2024-03-07T06:07:40;44.53;;;26.27;;
13343;SDS011;6741;48.964;9.406;2024-03-07T06:10:07;48.93;;;27.53;;
13343;SDS011;6741;48.964;9.406;2024-03-07T06:12:36;41.53;;;24.63;;
13343;SDS011;6741;48.964;9.406;2024-03-07T06:15:05;40.17;;;25.03;;
13343;SDS011;6741;48.964;9.406;2024-03-07T06:17:34;43.37;;;26.87;;
13343;SDS011;6741;48.964;9.406;2024-03-07T06:20:01;39.07;;;24.10;;
13343;SDS011;6741;48.964;9.406;2024-03-07T06:22:29;42.70;;;26.53;;
13343;SDS011;6741;48.964;9.406;2024-03-07T06:24:56;49.73;;;28.07;;
13343;SDS011;6741;48.964;9.406;2024-03-07T06:27:29;53.77;;;29.67;;
13343;SDS011;6741;48.964;9.406;2024-03-07T06:30:02;50.63;;;29.53;;
13343;SDS011;6741;48.964;9.406;2024-03-07T06:32:34;49.03;;;29.93;;
13343;SDS011;6741;48.964;9.406;2024-03-07T06:35:02;54.07;;;31.83;;
13343;SDS011;6741;48.964;9.406;2024-03-07T06:37:31;52.27;;;31.37;;
13343;SDS011;6741;48.964;9.406;2024-03-07T06:39:57;51.40;;;30.23;;
13343;SDS011;6741;48.964;9.406;2024-03-07T06:42:24;46.13;;;27.53;;
13343;SDS011;6741;48.964;9.406;2024-03-07T06:44:51;49.10;;;29.00;;
13343;SDS011;6741;48.964;9.406;2024-03-07T06:47:18;48.30;;;28.40;;
13343;SDS011;6741;48.964;9.406;2024-03-07T06:49:45;47.93;;;28.37;;
13343;SDS011;6741;48.964;9.406;2024-03-07T06:52:12;46.93;;;27.37;;
13343;SDS011;6741;48.964;9.406;2024-03-07T06:54:40;46.47;;;27.77;;
13343;SDS011;6741;48.964;9.406;2024-03-07T06:57:07;45.63;;;27.33;;
13343;SDS011;6741;48.964;9.406;2024-03-07T06:59:34;43.23;;;26.43;;
13343;SDS011;6741;48.964;9.406;2024-03-07T07:02:01;44.57;;;26.33;;
13343;SDS011;6741;48.964;9.406;2024-03-07T07:04:29;43.73;;;26.67;;
13343;SDS011;6741;48.964;9.406;2024-03-07T07:07:06;46.80;;;28.10;;
13343;SDS011;6741;48.964;9.406;2024-03-07T07:09:34;41.30;;;26.33;;
13343;SDS011;6741;48.964;9.406;2024-03-07T07:12:04;44.40;;;25.60;;
13343;SDS011;6741;48.964;9.406;2024-03-07T07:14:31;45.40;;;27.03;;
13343;SDS011;6741;48.964;9.406;2024-03-07T07:16:58;43.83;;;26.43;;
13343;SDS011;6741;48.964;9.406;2024-03-07T07:19:25;44.90;;;25.90;;
13343;SDS011;6741;48.964;9.406;2024-03-07T07:21:52;39.77;;;25.00;;
13343;SDS011;6741;48.964;9.406;2024-03-07T07:24:19;34.73;;;23.43;;
13343;SDS011;6741;48.964;9.406;2024-03-07T07:26:48;37.47;;;23.20;;
13343;SDS011;6741;48.964;9.406;2024-03-07T07:29:17;35.33;;;23.63;;
13343;SDS011;6741;48.964;9.406;2024-03-07T07:31:44;34.33;;;22.40;;
13343;SDS011;6741;48.964;9.406;2024-03-07T07:34:11;36.47;;;23.70;;
13343;SDS011;6741;48.964;9.406;2024-03-07T07:36:38;35.00;;;23.63;;
13343;SDS011;6741;48.964;9.406;2024-03-07T07:39:04;34.50;;;23.40;;
13343;SDS011;6741;48.964;9.406;2024-03-07T07:41:41;34.13;;;22.40;;
13343;SDS011;6741;48.964;9.406;2024-03-07T07:44:08;33.60;;;22.43;;
13343;SDS011;6741;48.964;9.406;2024-03-07T07:46:36;36.77;;;22.47;;
13343;SDS011;6741;48.964;9.406;2024-03-07T07:49:03;32.77;;;20.97;;
13343;SDS011;6741;48.964;9.406;2024-03-07T07:51:30;33.87;;;22.43;;
13343;SDS011;6741;48.964;9.406;2024-03-07T07:53:57;34.20;;;22.00;;
13343;SDS011;6741;48.964;9.406;2024-03-07T07:56:25;34.17;;;21.83;;
13343;SDS011;6741;48.964;9.406;2024-03-07T07:58:53;31.57;;;22.07;;
13343;SDS011;6741;48.964;9.406;2024-03-07T08:01:20;33.80;;;21.57;;
13343;SDS011;6741;48.964;9.406;2024-03-07T08:03:48;28.93;;;21.07;;
13343;SDS011;6741;48.964;9.406;2024-03-07T08:06:16;29.97;;;20.37;;
13343;SDS011;6741;48.964;9.406;2024-03-07T08:08:43;29.43;;;19.73;;
13343;SDS011;6741;48.964;9.406;2024-03-07T08:11:10;30.83;;;21.27;;
13343;SDS011;6741;48.964;9.406;2024-03-07T08:13:39;32.83;;;21.90;;
13343;SDS011;6741;48.964;9.406;2024-03-07T08:16:07;28.70;;;19.50;;
13343;SDS011;6741;48.964;9.406;2024-03-07T08:18:36;31.73;;;21.00;;
13343;SDS011;6741;48.964;9.406;2024-03-07T08:21:05;44.10;;;27.33;;
13343;SDS011;6741;48.964;9.406;2024-03-07T08:23:35;33.37;;;22.30;;
13343;SDS011;6741;48.964;9.406;2024-03-07T08:26:02;27.93;;;20.93;;
13343;SDS011;6741;48.964;9.406;2024-03-07T08:28:30;30.87;;;20.20;;
13343;SDS011;6741;48.964;9.406;2024-03-07T08:30:57;26.70;;;19.73;;
13343;SDS011;6741;48.964;9.406;2024-03-07T08:33:24;31.90;;;20.30;;
13343;SDS011;6741;48.964;9.406;2024-03-07T08:35:51;26.50;;;19.57;;
13343;SDS011;6741;48.964;9.406;2024-03-07T08:38:20;28.97;;;20.20;;
13343;SDS011;6741;48.964;9.406;2024-03-07T08:40:47;29.57;;;19.30;;
13343;SDS011;6741;48.964;9.406;2024-03-07T08:43:14;32.70;;;20.80;;
13343;SDS011;6741;48.964;9.406;2024-03-07T08:45:41;26.53;;;19.27;;
13343;SDS011;6741;48.964;9.406;2024-03-07T08:48:07;29.17;;;19.60;;
13343;SDS011;6741;48.964;9.406;2024-03-07T08:50:35;28.13;;;18.13;;
13343;SDS011;6741;48.964;9.406;2024-03-07T08:53:02;26.20;;;19.77;;
13343;SDS011;6741;48.964;9.406;2024-03-07T08:55:31;28.33;;;19.67;;
13343;SDS011;6741;48.964;9.406;2024-03-07T08:58:01;30.57;;;20.73;;
13343;SDS011;6741;48.964;9.406;2024-03-07T09:00:28;31.27;;;20.33;;
13343;SDS011;6741;48.964;9.406;2024-03-07T09:02:55;27.07;;;19.43;;
13343;SDS011;6741;48.964;9.406;2024-03-07T09:05:23;27.23;;;19.77;;
13343;SDS011;6741;48.964;9.406;2024-03-07T09:07:52;28.70;;;20.17;;
13343;SDS011;6741;48.964;9.406;2024-03-07T09:10:20;25.93;;;19.30;;
13343;SDS011;6741;48.964;9.406;2024-03-07T09:12:50;29.17;;;19.80;;
13343;SDS011;6741;48.964;9.406;2024-03-07T09:15:19;26.20;;;18.90;;
13343;SDS011;6741;48.964;9.406;2024-03-07T09:17:46;27.43;;;19.53;;
13343;SDS011;6741;48.964;9.406;2024-03-07T09:20:13;26.63;;;18.93;;
13343;SDS011;6741;48.964;9.406;2024-03-07T09:22:40;25.10;;;18.27;;
13343;SDS011;6741;48.964;9.406;2024-03-07T09:25:08;25.60;;;19.07;;
13343;SDS011;6741;48.964;9.406;2024-03-07T09:27:35;28.37;;;19.93;;
13343;SDS011;6741;48.964;9.406;2024-03-07T09:30:04;23.57;;;18.53;;
13343;SDS011;6741;48.964;9.406;2024-03-07T09:32:36;26.17;;;18.83;;
13343;SDS011;6741;48.964;9.406;2024-03-07T09:35:05;27.10;;;19.60;;
13343;SDS011;6741;48.964;9.406;2024-03-07T09:37:36;28.03;;;19.10;;
13343;SDS011;6741;48.964;9.406;2024-03-07T09:40:05;28.03;;;18.80;;
13343;SDS011;6741;48.964;9.406;2024-03-07T09:42:34;27.20;;;19.80;;
13343;SDS011;6741;48.964;9.406;2024-03-07T09:45:05;29.00;;;19.53;;
13343;SDS011;6741;48.964;9.406;2024-03-07T09:47:34;25.83;;;17.87;;
13343;SDS011;6741;48.964;9.406;2024-03-07T09:50:01;24.13;;;17.57;;
13343;SDS011;6741;48.964;9.406;2024-03-07T09:52:30;27.40;;;19.00;;
13343;SDS011;6741;48.964;9.406;2024-03-07T09:54:57;25.57;;;18.87;;
13343;SDS011;6741;48.964;9.406;2024-03-07T09:57:24;25.60;;;19.80;;
13343;SDS011;6741;48.964;9.406;2024-03-07T09:59:52;29.87;;;20.30;;
13343;SDS011;6741;48.964;9.406;2024-03-07T10:02:21;28.70;;;19.53;;
13343;SDS011;6741;48.964;9.406;2024-03-07T10:04:50;29.97;;;20.57;;
13343;SDS011;6741;48.964;9.406;2024-03-07T10:07:19;26.27;;;18.80;;
13343;SDS011;6741;48.964;9.406;2024-03-07T10:09:47;24.63;;;18.77;;
13343;SDS011;6741;48.964;9.406;2024-03-07T10:12:17;26.47;;;19.20;;
13343;SDS011;6741;48.964;9.406;2024-03-07T10:14:55;29.73;;;20.67;;
13343;SDS011;6741;48.964;9.406;2024-03-07T10:17:24;25.30;;;19.60;;
13343;SDS011;6741;48.964;9.406;2024-03-07T10:19:52;30.27;;;20.27;;
13343;SDS011;6741;48.964;9.406;2024-03-07T10:22:19;26.77;;;19.20;;
13343;SDS011;6741;48.964;9.406;2024-03-07T10:24:50;28.50;;;20.80;;
13343;SDS011;6741;48.964;9.406;2024-03-07T10:27:17;29.47;;;20.63;;
13343;SDS011;6741;48.964;9.406;2024-03-07T10:29:46;28.90;;;20.83;;
13343;SDS011;6741;48.964;9.406;2024-03-07T10:32:18;29.47;;;20.33;;
13343;SDS011;6741;48.964;9.406;2024-03-07T10:34:47;27.23;;;20.60;;
13343;SDS011;6741;48.964;9.406;2024-03-07T10:37:15;30.50;;;20.40;;
13343;SDS011;6741;48.964;9.406;2024-03-07T10:39:43;27.87;;;20.77;;
13343;SDS011;6741;48.964;9.406;2024-03-07T10:42:11;25.10;;;19.40;;
13343;SDS011;6741;48.964;9.406;2024-03-07T10:44:42;29.73;;;21.07;;
13343;SDS011;6741;48.964;9.406;2024-03-07T10:47:10;27.00;;;20.03;;
13343;SDS011;6741;48.964;9.406;2024-03-07T10:49:43;28.07;;;19.97;;
13343;SDS011;6741;48.964;9.406;2024-03-07T10:52:22;28.33;;;19.43;;
13343;SDS011;6741;48.964;9.406;2024-03-07T10:54:58;28.20;;;19.67;;
13343;SDS011;6741;48.964;9.406;2024-03-07T10:57:36;29.67;;;21.50;;
13343;SDS011;6741;48.964;9.406;2024-03-07T11:00:12;25.80;;;19.30;;
13343;SDS011;6741;48.964;9.406;2024-03-07T11:02:55;25.97;;;19.17;;
13343;SDS011;6741;48.964;9.406;2024-03-07T11:05:25;25.00;;;19.77;;
13343;SDS011;6741;48.964;9.406;2024-03-07T11:07:55;22.73;;;19.07;;
13343;SDS011;6741;48.964;9.406;2024-03-07T11:10:24;27.40;;;19.17;;
13343;SDS011;6741;48.964;9.406;2024-03-07T11:12:51;23.27;;;18.23;;
13343;SDS011;6741;48.964;9.406;2024-03-07T11:15:20;24.80;;;19.27;;
13343;SDS011;6741;48.964;9.406;2024-03-07T11:17:51;25.23;;;19.73;;
13343;SDS011;6741;48.964;9.406;2024-03-07T11:20:20;25.70;;;20.37;;
13343;SDS011;6741;48.964;9.406;2024-03-07T11:22:49;22.10;;;18.00;;
13343;SDS011;6741;48.964;9.406;2024-03-07T11:25:19;22.20;;;17.77;;
13343;SDS011;6741;48.964;9.406;2024-03-07T11:27:52;24.47;;;17.73;;
13343;SDS011;6741;48.964;9.406;2024-03-07T11:30:21;23.47;;;18.60;;
13343;SDS011;6741;48.964;9.406;2024-03-07T11:32:49;23.00;;;17.80;;
13343;SDS011;6741;48.964;9.406;2024-03-07T11:35:18;24.17;;;18.33;;
13343;SDS011;6741;48.964;9.406;2024-03-07T11:37:57;24.20;;;18.00;;
13343;SDS011;6741;48.964;9.406;2024-03-07T11:43:11;25.97;;;17.67;;
13343;SDS011;6741;48.964;9.406;2024-03-07T11:45:38;22.83;;;17.57;;
13343;SDS011;6741;48.964;9.406;2024-03-07T11:48:10;24.37;;;17.77;;
13343;SDS011;6741;48.964;9.406;2024-03-07T11:50:37;24.10;;;18.07;;
13343;SDS011;6741;48.964;9.406;2024-03-07T11:53:06;22.77;;;18.47;;
13343;SDS011;6741;48.964;9.406;2024-03-07T11:55:34;22.87;;;16.97;;
13343;SDS011;6741;48.964;9.406;2024-03-07T11:58:11;24.33;;;18.07;;
13343;SDS011;6741;48.964;9.406;2024-03-07T12:00:39;21.90;;;17.50;;
13343;SDS011;6741;48.964;9.406;2024-03-07T12:03:07;21.63;;;17.57;;
13343;SDS011;6741;48.964;9.406;2024-03-07T12:05:39;23.73;;;17.67;;
13343;SDS011;6741;48.964;9.406;2024-03-07T12:08:08;22.37;;;17.53;;
13343;SDS011;6741;48.964;9.406;2024-03-07T12:10:37;21.87;;;17.93;;
13343;SDS011;6741;48.964;9.406;2024-03-07T12:13:05;26.43;;;18.67;;
13343;SDS011;6741;48.964;9.406;2024-03-07T12:15:33;26.43;;;19.53;;
13343;SDS011;6741;48.964;9.406;2024-03-07T12:18:01;23.53;;;19.30;;
13343;SDS011;6741;48.964;9.406;2024-03-07T12:20:34;29.20;;;19.53;;
13343;SDS011;6741;48.964;9.406;2024-03-07T12:23:02;24.50;;;18.93;;
13343;SDS011;6741;48.964;9.406;2024-03-07T12:25:32;26.37;;;19.80;;
13343;SDS011;6741;48.964;9.406;2024-03-07T12:28:00;24.33;;;18.13;;
13343;SDS011;6741;48.964;9.406;2024-03-07T12:30:32;26.27;;;19.73;;
13343;SDS011;6741;48.964;9.406;2024-03-07T12:33:00;25.97;;;19.80;;
13343;SDS011;6741;48.964;9.406;2024-03-07T12:35:29;30.17;;;21.03;;
13343;SDS011;6741;48.964;9.406;2024-03-07T12:37:57;28.20;;;20.10;;
13343;SDS011;6741;48.964;9.406;2024-03-07T12:40:25;30.73;;;21.67;;
13343;SDS011;6741;48.964;9.406;2024-03-07T12:42:56;27.57;;;20.17;;
13343;SDS011;6741;48.964;9.406;2024-03-07T12:45:23;27.20;;;20.67;;
13343;SDS011;6741;48.964;9.406;2024-03-07T12:47:51;26.93;;;20.40;;
13343;SDS011;6741;48.964;9.406;2024-03-07T12:50:19;30.90;;;21.63;;
13343;SDS011;6741;48.964;9.406;2024-03-07T12:52:47;27.90;;;20.63;;
13343;SDS011;6741;48.964;9.406;2024-03-07T12:55:15;25.27;;;19.50;;
13343;SDS011;6741;48.964;9.406;2024-03-07T12:57:47;29.30;;;21.07;;
13343;SDS011;6741;48.964;9.406;2024-03-07T13:00:18;28.57;;;21.40;;
13343;SDS011;6741;48.964;9.406;2024-03-07T13:02:48;26.33;;;20.13;;
13343;SDS011;6741;48.964;9.406;2024-03-07T13:05:15;28.97;;;20.17;;
13343;SDS011;6741;48.964;9.406;2024-03-07T13:07:47;27.70;;;20.67;;
13343;SDS011;6741;48.964;9.406;2024-03-07T13:10:14;27.73;;;20.97;;
13343;SDS011;6741;48.964;9.406;2024-03-07T13:12:43;25.30;;;19.37;;
13343;SDS011;6741;48.964;9.406;2024-03-07T13:15:11;28.83;;;19.93;;
13343;SDS011;6741;48.964;9.406;2024-03-07T13:17:39;30.97;;;21.60;;
13343;SDS011;6741;48.964;9.406;2024-03-07T13:20:08;30.17;;;21.40;;
13343;SDS011;6741;48.964;9.406;2024-03-07T13:22:40;29.33;;;21.13;;
13343;SDS011;6741;48.964;9.406;2024-03-07T13:25:09;33.20;;;20.97;;
13343;SDS011;6741;48.964;9.406;2024-03-07T13:27:42;30.47;;;21.03;;
13343;SDS011;6741;48.964;9.406;2024-03-07T13:30:16;30.30;;;21.77;;
13343;SDS011;6741;48.964;9.406;2024-03-07T13:32:50;29.90;;;21.00;;
13343;SDS011;6741;48.964;9.406;2024-03-07T13:35:18;31.37;;;21.43;;
13343;SDS011;6741;48.964;9.406;2024-03-07T13:37:46;28.70;;;20.50;;
13343;SDS011;6741;48.964;9.406;2024-03-07T13:40:14;27.33;;;19.50;;
13343;SDS011;6741;48.964;9.406;2024-03-07T13:42:53;28.07;;;21.27;;
13343;SDS011;6741;48.964;9.406;2024-03-07T13:45:21;27.03;;;20.37;;
13343;SDS011;6741;48.964;9.406;2024-03-07T13:47:52;25.57;;;20.27;;
13343;SDS011;6741;48.964;9.406;2024-03-07T13:50:21;34.40;;;25.17;;
13343;SDS011;6741;48.964;9.406;2024-03-07T13:52:50;31.23;;;21.27;;
13343;SDS011;6741;48.964;9.406;2024-03-07T13:55:39;31.03;;;21.80;;
13343;SDS011;6741;48.964;9.406;2024-03-07T13:58:15;27.10;;;19.77;;
13343;SDS011;6741;48.964;9.406;2024-03-07T14:01:02;29.83;;;20.63;;
13343;SDS011;6741;48.964;9.406;2024-03-07T14:03:55;26.47;;;19.07;;
13343;SDS011;6741;48.964;9.406;2024-03-07T14:06:45;29.70;;;20.67;;
13343;SDS011;6741;48.964;9.406;2024-03-07T14:09:33;29.57;;;19.90;;
13343;SDS011;6741;48.964;9.406;2024-03-07T14:12:24;29.80;;;20.10;;
13343;SDS011;6741;48.964;9.406;2024-03-07T14:21:39;26.43;;;19.23;;
13343;SDS011;6741;48.964;9.406;2024-03-07T14:27:32;28.47;;;19.63;;
13343;SDS011;6741;48.964;9.406;2024-03-07T14:30:10;26.70;;;17.97;;
13343;SDS011;6741;48.964;9.406;2024-03-07T14:32:48;26.87;;;19.10;;
13343;SDS011;6741;48.964;9.406;2024-03-07T14:35:18;26.80;;;18.67;;
13343;SDS011;6741;48.964;9.406;2024-03-07T14:37:53;28.13;;;19.60;;
13343;SDS011;6741;48.964;9.406;2024-03-07T14:40:28;24.80;;;17.47;;
13343;SDS011;6741;48.964;9.406;2024-03-07T14:42:55;27.37;;;18.83;;
13343;SDS011;6741;48.964;9.406;2024-03-07T14:45:25;25.20;;;18.83;;
13343;SDS011;6741;48.964;9.406;2024-03-07T14:47:58;26.73;;;18.97;;
13343;SDS011;6741;48.964;9.406;2024-03-07T14:50:26;27.10;;;18.03;;
13343;SDS011;6741;48.964;9.406;2024-03-07T14:52:56;25.53;;;18.00;;
13343;SDS011;6741;48.964;9.406;2024-03-07T14:55:23;26.30;;;17.87;;